createdAt,value
2023-03-20T00:02:03.199Z,14.05
2023-03-20T00:04:31.972Z,17.52
2023-03-20T00:07:00.567Z,14.35
2023-03-20T00:09:31.525Z,15.13
2023-03-20T00:12:00.325Z,13.98
2023-03-20T00:14:29.357Z,15.98
2023-03-20T00:16:57.852Z,14.07
2023-03-20T00:19:31.087Z,12.98
2023-03-20T00:21:59.788Z,11.55
2023-03-20T00:24:29.922Z,17.77
2023-03-20T00:26:58.594Z,17.73
2023-03-20T00:29:28.153Z,12.27
2023-03-20T00:31:57.011Z,12.60
2023-03-20T00:34:27.206Z,12.63
2023-03-20T00:36:56.460Z,13.75
2023-03-20T00:39:25.163Z,12.88
2023-03-20T00:41:56.185Z,12.10
2023-03-20T00:44:26.374Z,13.48
2023-03-20T00:46:56.878Z,12.90
2023-03-20T00:49:28.063Z,13.85
2023-03-20T00:51:56.676Z,12.50
2023-03-20T00:54:25.236Z,15.60
2023-03-20T00:56:58.000Z,10.25
2023-03-20T00:59:28.210Z,13.25
2023-03-20T01:01:58.791Z,12.80
2023-03-20T01:04:35.545Z,15.02
2023-03-20T01:07:04.335Z,14.45
2023-03-20T01:09:32.892Z,10.77
2023-03-20T01:12:03.053Z,14.30
2023-03-20T01:14:31.661Z,11.40
2023-03-20T01:17:00.514Z,10.80
2023-03-20T01:19:29.080Z,13.80
2023-03-20T01:21:57.826Z,9.68
2023-03-20T01:24:26.457Z,14.50
2023-03-20T01:26:55.052Z,10.77
2023-03-20T01:29:27.249Z,11.45
2023-03-20T01:31:56.042Z,10.13
2023-03-20T01:34:24.822Z,10.18
2023-03-20T01:36:54.734Z,10.70
2023-03-20T01:39:24.509Z,11.38
2023-03-20T01:41:53.530Z,10.85
2023-03-20T01:44:24.687Z,10.57
2023-03-20T01:46:53.867Z,9.88
2023-03-20T01:50:27.375Z,11.32
2023-03-20T01:53:07.764Z,9.93
2023-03-20T01:55:37.281Z,11.70
2023-03-20T01:58:08.622Z,9.05
2023-03-20T02:00:38.836Z,12.80
2023-03-20T02:03:09.049Z,11.00
2023-03-20T02:05:38.280Z,9.95
2023-03-20T02:08:29.154Z,8.70
2023-03-20T02:10:58.254Z,9.18
2023-03-20T02:13:28.008Z,12.05
2023-03-20T02:16:05.914Z,10.43
2023-03-20T02:18:35.013Z,11.05
2023-03-20T02:21:42.957Z,9.45
2023-03-20T02:25:15.610Z,8.95
2023-03-20T02:27:52.960Z,12.77
2023-03-20T02:30:49.715Z,10.30
2023-03-20T02:33:57.176Z,9.18
2023-03-20T02:37:34.143Z,10.75
2023-03-20T02:40:13.914Z,11.07
2023-03-20T02:42:46.140Z,10.45
2023-03-20T02:45:18.515Z,9.15
2023-03-20T02:47:51.302Z,11.82
2023-03-20T02:50:22.968Z,11.18
2023-03-20T02:52:59.759Z,8.38
2023-03-20T02:55:34.281Z,7.68
2023-03-20T02:58:07.403Z,9.77
2023-03-20T03:00:37.185Z,10.98
2023-03-20T03:03:11.074Z,9.50
2023-03-20T03:05:42.826Z,10.43
2023-03-20T03:08:13.732Z,9.55
2023-03-20T03:10:45.353Z,8.55
2023-03-20T03:13:16.688Z,9.00
2023-03-20T03:15:46.646Z,8.85
2023-03-20T03:18:19.307Z,8.50
2023-03-20T03:20:48.595Z,10.82
2023-03-20T03:23:24.508Z,10.40
2023-03-20T03:25:54.515Z,7.70
2023-03-20T03:28:29.139Z,8.63
2023-03-20T03:30:57.880Z,7.68
2023-03-20T03:33:28.869Z,8.55
2023-03-20T03:36:09.408Z,9.30
2023-03-20T03:38:44.640Z,9.90
2023-03-20T03:41:23.954Z,6.68
2023-03-20T03:43:57.928Z,10.80
2023-03-20T03:46:30.761Z,8.30
2023-03-20T03:48:59.634Z,10.00
2023-03-20T03:51:31.031Z,8.90
2023-03-20T03:54:01.953Z,8.93
2023-03-20T03:56:32.896Z,10.18
2023-03-20T03:59:04.010Z,9.82
2023-03-20T04:01:35.474Z,9.77
2023-03-20T04:04:07.343Z,9.35
2023-03-20T04:06:36.025Z,8.90
2023-03-20T04:09:04.780Z,8.18
2023-03-20T04:11:35.861Z,7.55
2023-03-20T04:14:04.536Z,8.05
2023-03-20T04:16:33.375Z,7.78
2023-03-20T04:19:01.960Z,7.90
2023-03-20T04:21:30.682Z,7.75
2023-03-20T04:23:59.334Z,8.63
2023-03-20T04:26:28.052Z,7.57
2023-03-20T04:28:58.087Z,8.70
2023-03-20T04:31:26.914Z,8.43
2023-03-20T04:33:55.521Z,6.93
2023-03-20T04:36:24.227Z,7.93
2023-03-20T04:38:55.120Z,9.27
2023-03-20T04:41:24.980Z,6.15
2023-03-20T04:43:53.673Z,9.07
2023-03-20T04:46:23.644Z,8.35
2023-03-20T04:48:52.234Z,6.10
2023-03-20T04:51:20.960Z,6.68
2023-03-20T04:53:49.488Z,8.73
2023-03-20T04:56:18.213Z,7.05
2023-03-20T04:58:46.989Z,8.25
2023-03-20T05:01:15.632Z,6.82
2023-03-20T05:03:46.122Z,7.65
2023-03-20T05:06:14.820Z,7.43
2023-03-20T05:08:43.363Z,6.43
2023-03-20T05:11:12.059Z,7.70
2023-03-20T05:13:40.967Z,8.13
2023-03-20T05:16:10.312Z,7.82
2023-03-20T05:18:38.919Z,7.95
2023-03-20T05:21:09.654Z,7.55
2023-03-20T05:23:38.318Z,6.05
2023-03-20T05:26:07.717Z,6.55
2023-03-20T05:28:36.551Z,8.10
2023-03-20T05:31:05.624Z,11.05
2023-03-20T05:33:36.804Z,8.52
2023-03-20T05:36:09.487Z,7.57
2023-03-20T05:38:38.043Z,9.05
2023-03-20T05:41:07.388Z,7.90
2023-03-20T05:43:35.915Z,7.32
2023-03-20T05:46:04.699Z,6.78
2023-03-20T05:48:33.427Z,7.20
2023-03-20T05:51:02.171Z,6.65
2023-03-20T05:53:32.158Z,11.88
2023-03-20T05:56:00.933Z,7.25
2023-03-20T05:58:29.654Z,7.68
2023-03-20T06:00:59.029Z,8.10
2023-03-20T06:03:27.868Z,11.68
2023-03-20T06:05:56.438Z,6.72
2023-03-20T06:08:25.179Z,8.27
2023-03-20T06:10:55.188Z,10.40
2023-03-20T06:13:23.903Z,10.68
2023-03-20T06:15:52.638Z,6.25
2023-03-20T06:18:21.394Z,10.07
2023-03-20T06:20:54.022Z,8.57
2023-03-20T06:23:23.229Z,7.22
2023-03-20T06:25:52.042Z,6.82
2023-03-20T06:28:22.047Z,7.35
2023-03-20T06:30:53.410Z,7.63
2023-03-20T06:33:22.170Z,6.13
2023-03-20T06:35:51.245Z,8.48
2023-03-20T06:38:19.865Z,7.68
2023-03-20T06:40:48.533Z,7.13
2023-03-20T06:43:17.290Z,8.63
2023-03-20T06:45:48.194Z,8.35
2023-03-20T06:48:21.952Z,8.55
2023-03-20T06:50:50.687Z,12.48
2023-03-20T06:53:19.340Z,7.72
2023-03-20T06:55:48.990Z,8.10
2023-03-20T06:58:17.572Z,12.90
2023-03-20T07:00:47.779Z,9.55
2023-03-20T07:03:16.769Z,8.73
2023-03-20T07:05:45.980Z,7.85
2023-03-20T07:08:15.276Z,7.40
2023-03-20T07:10:43.942Z,8.38
2023-03-20T07:13:12.734Z,9.32
2023-03-20T07:15:53.884Z,10.93
2023-03-20T07:18:31.714Z,7.68
2023-03-20T07:21:01.887Z,7.00
2023-03-20T07:23:30.836Z,7.57
2023-03-20T07:25:59.694Z,6.75
2023-03-20T07:28:28.391Z,9.30
2023-03-20T07:30:57.056Z,8.48
2023-03-20T07:33:25.812Z,6.03
2023-03-20T07:35:56.183Z,9.43
2023-03-20T07:38:24.916Z,8.23
2023-03-20T07:40:55.954Z,7.50
2023-03-20T07:43:24.628Z,7.47
2023-03-20T07:45:53.247Z,6.45
2023-03-20T07:48:21.997Z,6.53
2023-03-20T07:50:50.834Z,7.53
2023-03-20T07:53:21.020Z,10.27
2023-03-20T07:55:49.726Z,6.30
2023-03-20T07:58:18.376Z,8.20
2023-03-20T08:00:47.192Z,6.47
2023-03-20T08:03:16.718Z,8.75
2023-03-20T08:05:47.387Z,8.75
2023-03-20T08:08:16.641Z,8.95
2023-03-20T08:10:46.760Z,7.78
2023-03-20T08:13:15.473Z,11.60
2023-03-20T08:15:44.238Z,9.13
2023-03-20T08:18:12.953Z,7.28
2023-03-20T08:20:41.821Z,7.57
2023-03-20T08:23:10.492Z,6.25
2023-03-20T08:25:39.416Z,7.05
2023-03-20T08:28:09.592Z,6.82
2023-03-20T08:30:38.168Z,8.90
2023-03-20T08:33:06.877Z,7.53
2023-03-20T08:35:35.616Z,7.63
2023-03-20T08:38:04.328Z,7.90
2023-03-20T08:40:33.136Z,7.47
2023-03-20T08:43:01.808Z,7.20
2023-03-20T08:45:31.929Z,10.40
2023-03-20T08:48:00.599Z,8.27
2023-03-20T08:50:30.025Z,7.32
2023-03-20T08:52:58.605Z,9.27
2023-03-20T08:55:27.261Z,7.32
2023-03-20T08:57:57.433Z,7.50
2023-03-20T09:00:26.219Z,7.82
2023-03-20T09:02:56.264Z,6.13
2023-03-20T09:05:25.293Z,9.25
2023-03-20T09:07:53.905Z,9.75
2023-03-20T09:10:22.863Z,8.88
2023-03-20T09:12:51.562Z,6.30
2023-03-20T09:15:20.499Z,7.57
2023-03-20T09:17:49.231Z,6.93
2023-03-20T09:20:19.649Z,8.50
2023-03-20T09:22:48.399Z,7.55
2023-03-20T09:25:17.117Z,6.95
2023-03-20T09:27:46.680Z,6.93
2023-03-20T09:30:16.082Z,8.07
2023-03-20T09:32:44.882Z,6.80
2023-03-20T09:35:13.525Z,6.68
2023-03-20T09:37:43.517Z,7.30
2023-03-20T09:40:22.122Z,8.63
2023-03-20T09:42:54.519Z,8.23
2023-03-20T09:45:28.838Z,6.35
2023-03-20T09:48:02.285Z,7.18
2023-03-20T09:50:35.515Z,6.05
2023-03-20T09:53:07.735Z,7.63
2023-03-20T09:55:38.012Z,7.18
2023-03-20T09:58:16.543Z,8.50
2023-03-20T10:00:47.107Z,6.15
2023-03-20T10:03:21.414Z,6.82
2023-03-20T10:05:55.597Z,7.13
2023-03-20T10:08:29.229Z,6.22
2023-03-20T10:11:05.818Z,6.28
2023-03-20T10:13:59.093Z,6.47
2023-03-20T10:16:38.949Z,6.50
2023-03-20T10:19:12.307Z,7.93
2023-03-20T10:21:44.495Z,7.50
2023-03-20T10:24:19.736Z,8.02
2023-03-20T10:26:49.834Z,7.15
2023-03-20T10:29:25.614Z,6.40
2023-03-20T10:31:58.929Z,7.80
2023-03-20T10:34:42.841Z,6.80
2023-03-20T10:37:22.283Z,8.57
2023-03-20T10:39:58.816Z,6.85
2023-03-20T10:42:30.249Z,7.47
2023-03-20T10:45:00.775Z,7.15
2023-03-20T10:47:31.601Z,6.38
2023-03-20T10:50:02.499Z,7.93
2023-03-20T10:52:33.192Z,6.68
2023-03-20T10:55:06.829Z,6.75
2023-03-20T10:57:38.476Z,7.20
2023-03-20T11:00:14.744Z,7.93
2023-03-20T11:02:43.463Z,7.45
2023-03-20T11:05:22.368Z,8.18
2023-03-20T11:07:52.006Z,6.15
2023-03-20T11:10:22.211Z,6.43
2023-03-20T11:12:52.491Z,6.75
2023-03-20T11:15:24.788Z,8.05
2023-03-20T11:17:55.702Z,7.20
2023-03-20T11:20:25.547Z,9.38
2023-03-20T11:22:59.846Z,6.20
2023-03-20T11:25:34.098Z,5.85
2023-03-20T11:28:21.865Z,6.40
2023-03-20T11:31:04.041Z,7.85
2023-03-20T11:33:34.932Z,6.05
2023-03-20T11:36:03.792Z,8.07
2023-03-20T11:38:32.996Z,6.07
2023-03-20T11:41:02.932Z,6.60
2023-03-20T11:43:31.542Z,7.43
2023-03-20T11:46:01.486Z,6.45
2023-03-20T11:48:39.164Z,6.05
2023-03-20T11:51:09.841Z,5.72
2023-03-20T11:53:40.539Z,7.03
2023-03-20T11:56:13.076Z,7.32
2023-03-20T11:58:52.193Z,6.63
2023-03-20T12:01:20.794Z,9.82
2023-03-20T12:03:55.643Z,6.88
2023-03-20T12:06:27.294Z,6.50
2023-03-20T12:08:58.540Z,7.03
2023-03-20T12:11:44.557Z,6.22
2023-03-20T12:14:23.331Z,5.72
2023-03-20T12:16:54.904Z,6.25
2023-03-20T12:19:26.969Z,6.13
2023-03-20T12:22:02.139Z,6.53
2023-03-20T12:24:34.922Z,6.43
2023-03-20T12:27:17.300Z,5.97
2023-03-20T12:29:49.858Z,6.45
2023-03-20T12:32:22.432Z,6.85
2023-03-20T12:34:53.122Z,6.35
2023-03-20T12:37:21.916Z,5.68
2023-03-20T12:39:52.229Z,6.72
2023-03-20T12:42:31.861Z,6.00
2023-03-20T12:45:04.334Z,6.25
2023-03-20T12:47:56.211Z,6.10
2023-03-20T12:50:31.599Z,6.45
2023-03-20T12:53:31.115Z,7.72
2023-03-20T12:56:07.783Z,6.15
2023-03-20T12:58:42.558Z,5.72
2023-03-20T13:01:15.121Z,6.20
2023-03-20T13:04:23.637Z,7.38
2023-03-20T13:06:54.097Z,5.32
2023-03-20T13:09:57.354Z,5.70
2023-03-20T13:12:36.309Z,5.72
2023-03-20T13:15:17.420Z,5.97
2023-03-20T13:17:48.550Z,6.97
2023-03-20T13:20:24.812Z,5.95
2023-03-20T13:23:02.078Z,5.45
2023-03-20T13:25:56.578Z,5.85
2023-03-20T13:28:31.037Z,5.90
2023-03-20T13:31:05.800Z,7.65
2023-03-20T13:33:45.572Z,5.40
2023-03-20T13:36:20.539Z,7.45
2023-03-20T13:38:51.169Z,5.65
2023-03-20T13:41:20.023Z,6.13
2023-03-20T13:43:50.736Z,6.70
2023-03-20T13:46:24.034Z,9.60
2023-03-20T13:48:52.841Z,6.07
2023-03-20T13:51:27.872Z,8.63
2023-03-20T13:54:14.812Z,12.23
2023-03-20T13:56:50.634Z,5.90
2023-03-20T13:59:51.812Z,6.53
2023-03-20T14:02:32.633Z,6.15
2023-03-20T14:05:05.952Z,6.07
2023-03-20T14:07:36.127Z,6.07
2023-03-20T14:10:40.960Z,5.45
2023-03-20T14:13:15.522Z,5.38
2023-03-20T14:15:52.481Z,6.72
2023-03-20T14:18:24.365Z,5.80
2023-03-20T14:20:56.851Z,6.25
2023-03-20T14:23:36.841Z,5.55
2023-03-20T14:26:11.346Z,5.80
2023-03-20T14:28:55.608Z,5.80
2023-03-20T14:31:28.392Z,5.18
2023-03-20T14:34:11.126Z,7.47
2023-03-20T14:37:02.142Z,10.20
2023-03-20T14:39:44.806Z,6.30
2023-03-20T14:42:35.183Z,6.85
2023-03-20T14:45:33.852Z,5.70
2023-03-20T14:48:08.405Z,5.63
2023-03-20T14:50:42.660Z,6.75
2023-03-20T14:53:18.569Z,5.70
2023-03-20T14:55:58.536Z,8.48
2023-03-20T14:58:53.953Z,5.57
2023-03-20T15:01:30.063Z,5.90
2023-03-20T15:04:01.427Z,6.60
2023-03-20T15:06:32.214Z,5.13
2023-03-20T15:09:02.858Z,5.50
2023-03-20T15:11:32.231Z,5.47
2023-03-20T15:14:01.571Z,6.05
2023-03-20T15:16:31.464Z,6.38
2023-03-20T15:19:00.631Z,7.05
2023-03-20T15:21:34.726Z,6.28
2023-03-20T15:24:03.918Z,5.97
2023-03-20T15:26:35.166Z,6.88
2023-03-20T15:29:05.960Z,5.78
2023-03-20T15:31:36.543Z,5.97
2023-03-20T15:34:08.739Z,6.18
2023-03-20T15:36:40.650Z,7.47
2023-03-20T15:39:15.632Z,5.00
2023-03-20T15:41:47.753Z,7.45
2023-03-20T15:44:23.047Z,5.93
2023-03-20T15:47:01.197Z,6.47
2023-03-20T15:49:32.166Z,8.80
2023-03-20T15:52:04.810Z,5.25
2023-03-20T15:54:34.536Z,5.97
2023-03-20T15:57:05.533Z,8.77
2023-03-20T15:59:34.996Z,6.47
2023-03-20T16:02:04.564Z,5.25
2023-03-20T16:04:33.804Z,7.30
2023-03-20T16:07:04.309Z,5.88
2023-03-20T16:09:45.496Z,5.80
2023-03-20T16:12:17.619Z,8.15
2023-03-20T16:14:48.203Z,5.68
2023-03-20T16:17:17.899Z,11.55
2023-03-20T16:19:47.509Z,9.50
2023-03-20T16:22:28.417Z,8.55
2023-03-20T16:24:59.008Z,6.20
2023-03-20T16:27:30.268Z,6.63
2023-03-20T16:29:59.546Z,8.40
2023-03-20T16:32:39.944Z,10.70
2023-03-20T16:35:17.458Z,10.95
2023-03-20T16:37:50.539Z,15.60
2023-03-20T16:40:25.229Z,17.92
2023-03-20T16:42:57.419Z,17.38
2023-03-20T16:45:30.448Z,13.70
2023-03-20T16:48:28.752Z,20.75
2023-03-20T16:51:08.432Z,18.98
2023-03-20T16:53:43.761Z,17.08
2023-03-20T16:56:23.530Z,19.83
2023-03-20T16:58:56.046Z,16.98
2023-03-20T17:01:30.077Z,15.15
2023-03-20T17:04:00.543Z,18.80
2023-03-20T17:06:39.886Z,16.85
2023-03-20T17:09:25.519Z,17.73
2023-03-20T17:12:02.868Z,15.27
2023-03-20T17:14:32.048Z,16.50
2023-03-20T17:17:01.839Z,15.57
2023-03-20T17:19:31.879Z,17.92
2023-03-20T17:22:03.918Z,14.00
2023-03-20T17:24:34.259Z,15.00
2023-03-20T17:27:03.575Z,17.08
2023-03-20T17:29:32.853Z,20.50
2023-03-20T17:32:02.360Z,15.68
2023-03-20T17:34:32.102Z,18.70
2023-03-20T17:37:03.450Z,14.75
2023-03-20T17:39:33.889Z,18.75
2023-03-20T17:42:03.711Z,14.38
2023-03-20T17:44:32.774Z,18.67
2023-03-20T17:47:02.683Z,15.68
2023-03-20T17:49:32.364Z,14.85
2023-03-20T17:52:01.501Z,16.58
2023-03-20T17:54:30.596Z,16.85
2023-03-20T17:57:01.234Z,16.38
2023-03-20T17:59:31.394Z,15.07
2023-03-20T18:02:02.230Z,15.98
2023-03-20T18:04:31.722Z,18.15
2023-03-20T18:07:01.127Z,16.45
2023-03-20T18:09:31.117Z,13.35
2023-03-20T18:12:01.958Z,17.42
2023-03-20T18:14:31.197Z,13.25
2023-03-20T18:17:00.396Z,17.83
2023-03-20T18:19:30.582Z,15.35
2023-03-20T18:21:59.998Z,15.95
2023-03-20T18:24:29.582Z,15.35
2023-03-20T18:26:59.230Z,17.05
2023-03-20T18:29:30.215Z,12.95
2023-03-20T18:31:59.541Z,15.02
2023-03-20T18:34:28.787Z,15.27
2023-03-20T18:36:57.724Z,13.90
2023-03-20T18:39:27.363Z,19.48
2023-03-20T18:41:55.954Z,16.17
2023-03-20T18:44:24.520Z,15.60
2023-03-20T18:46:54.757Z,13.60
2023-03-20T18:49:23.464Z,14.18
2023-03-20T18:51:53.381Z,16.70
2023-03-20T18:54:22.035Z,19.35
2023-03-20T18:56:52.025Z,19.13
2023-03-20T18:59:20.759Z,16.35
2023-03-20T19:01:49.591Z,16.00
2023-03-20T19:04:23.386Z,14.75
2023-03-20T19:06:52.924Z,16.75
2023-03-20T19:09:21.868Z,15.80
2023-03-20T19:11:50.780Z,16.88
2023-03-20T19:14:19.405Z,16.35
2023-03-20T19:16:48.010Z,13.23
2023-03-20T19:19:18.298Z,17.02
2023-03-20T19:21:47.140Z,20.38
2023-03-20T19:24:15.729Z,16.88
2023-03-20T19:26:44.626Z,12.82
2023-03-20T19:29:14.138Z,23.50
2023-03-20T19:31:43.518Z,14.75
2023-03-20T19:34:38.937Z,14.30
2023-03-20T19:37:02.220Z,16.30
2023-03-20T19:39:31.404Z,16.45
2023-03-20T19:42:15.376Z,15.75
2023-03-20T19:44:49.227Z,15.90
2023-03-20T19:47:17.988Z,16.48
2023-03-20T19:49:46.689Z,12.90
2023-03-20T19:52:18.535Z,13.60
2023-03-20T19:55:01.595Z,16.77
2023-03-20T19:57:31.319Z,15.43
2023-03-20T20:00:43.828Z,16.83
2023-03-20T20:02:48.988Z,15.55
2023-03-20T20:05:23.270Z,12.77
2023-03-20T20:08:22.251Z,13.18
2023-03-20T20:10:44.485Z,14.93
2023-03-20T20:13:19.092Z,14.68
2023-03-20T20:15:48.150Z,15.15
2023-03-20T20:18:17.221Z,13.93
2023-03-20T20:21:34.609Z,14.77
2023-03-20T20:23:38.363Z,13.20
2023-03-20T20:26:09.981Z,14.52
2023-03-20T20:28:38.759Z,17.58
2023-03-20T20:31:07.359Z,16.23
2023-03-20T20:33:36.816Z,13.75
2023-03-20T20:36:57.603Z,16.92
2023-03-20T20:39:02.102Z,16.08
2023-03-20T20:41:31.207Z,20.15
2023-03-20T20:44:17.189Z,15.30
2023-03-20T20:46:46.337Z,13.18
2023-03-20T20:49:19.444Z,14.45
2023-03-20T20:51:48.832Z,14.43
2023-03-20T20:54:18.863Z,13.65
2023-03-20T20:56:47.533Z,14.60
2023-03-20T20:59:16.222Z,16.13
2023-03-20T21:01:44.879Z,14.35
2023-03-20T21:04:13.602Z,15.48
2023-03-20T21:09:32.815Z,12.85
2023-03-20T21:12:02.838Z,13.43
2023-03-20T21:14:31.524Z,15.32
2023-03-20T21:17:01.844Z,13.60
2023-03-20T21:19:30.994Z,15.00
2023-03-20T21:21:59.604Z,16.77
2023-03-20T21:24:32.653Z,14.23
2023-03-20T21:27:04.397Z,12.88
2023-03-20T21:29:32.990Z,13.50
2023-03-20T21:32:01.924Z,12.13
2023-03-20T21:34:30.707Z,14.88
2023-03-20T21:37:00.169Z,15.32
2023-03-20T21:39:30.956Z,14.30
2023-03-20T21:41:59.495Z,11.70
2023-03-20T21:48:09.226Z,15.73
2023-03-20T21:50:52.518Z,12.38
2023-03-20T21:53:57.661Z,15.43
2023-03-20T21:56:34.893Z,12.30
2023-03-20T21:59:27.073Z,15.43
2023-03-20T22:02:02.479Z,13.45
2023-03-20T22:16:10.746Z,13.75
2023-03-20T22:21:57.355Z,12.98
2023-03-20T22:27:35.221Z,10.93
2023-03-20T22:30:22.202Z,11.07
2023-03-20T22:38:59.486Z,13.30
2023-03-20T22:47:38.234Z,22.85
2023-03-20T22:50:08.692Z,22.70
2023-03-20T22:52:48.681Z,24.02
2023-03-20T22:55:18.420Z,26.35
2023-03-20T22:58:05.408Z,27.40
2023-03-20T23:00:35.556Z,23.10
2023-03-20T23:03:37.540Z,25.05
2023-03-20T23:05:55.343Z,24.63
2023-03-20T23:08:24.758Z,23.42
2023-03-20T23:10:53.387Z,26.10
2023-03-20T23:13:22.553Z,24.00
2023-03-20T23:15:51.866Z,22.85
2023-03-20T23:18:21.666Z,24.73
2023-03-20T23:20:50.130Z,23.50
2023-03-20T23:23:18.580Z,24.33
2023-03-20T23:25:47.248Z,24.08
2023-03-20T23:28:15.846Z,23.75
2023-03-20T23:30:51.789Z,21.52
2023-03-20T23:33:26.536Z,18.35
2023-03-20T23:36:12.444Z,23.95
2023-03-20T23:38:44.922Z,21.45
2023-03-20T23:41:14.342Z,18.45
2023-03-20T23:43:42.840Z,18.65
2023-03-20T23:46:11.549Z,21.58
2023-03-20T23:48:41.404Z,20.20
2023-03-20T23:51:10.007Z,18.70
2023-03-20T23:53:38.441Z,21.13
2023-03-20T23:56:08.795Z,18.02
2023-03-20T23:58:41.856Z,21.45
